Flight Track Log - Related Links

Times and Time Zones

All times are in EDT time to prevent confusion due to time zone crossing. See the NKS200 flight status page for this flight to view local times or setup timezone preferences in your user account.

Time Position Orientation Groundspeed Altitude Reporting Facility
EDT Latitude Longitude Course Direction KTS MPH feet Rate Location/Type
Tue 08:57:18 AM 29.9593 -95.3451 163° South 163 188 700  Level FlightAware ADS-B
Tue 08:57:22 AM 29.9566 -95.3448 175° South 162 186 900 2,727 Climbing FlightAware ADS-B
Tue 08:57:29 AM 29.9513 -95.3462 193° South 161 185 1,200 2,000 Climbing FlightAware ADS-B
Tue 08:57:37 AM 29.9465 -95.3501 215° Southwest 166 191 1,400 1,412 Climbing FlightAware ADS-B
Tue 08:57:46 AM 29.9429 -95.3576 241° Southwest 172 198 1,600 1,600 Climbing FlightAware ADS-B
Tue 08:57:52 AM 29.9423 -95.3621 261° West 176 203 1,800 2,000 Climbing FlightAware ADS-B
Tue 08:57:55 AM 29.9425 -95.3652 274° West 179 206 1,900 1,500 Climbing FlightAware ADS-B
Tue 08:58:08 AM 29.9484 -95.3762 302° West 182 209 2,200 1,412 Climbing FlightAware ADS-B
Tue 08:58:12 AM 29.9513 -95.3781 330° Northwest 185 213 2,300 1,500 Climbing FlightAware ADS-B
Tue 08:58:16 AM 29.9544 -95.3792 343° North 187 215 2,400 1,714 Climbing FlightAware ADS-B
Tue 08:58:19 AM 29.9571 -95.3796 353° North 189 217 2,500 1,714 Climbing FlightAware ADS-B
Tue 08:58:23 AM 29.9600 -95.3795 North 190 219 2,600 857 Climbing FlightAware ADS-B
Tue 08:58:26 AM 29.9631 -95.3787 13° North 192 221 2,600 750 Level FlightAware ADS-B
Tue 08:58:31 AM 29.9676 -95.3768 20° North 197 227 2,700 1,429 Climbing FlightAware ADS-B
Tue 08:58:47 AM 29.9816 -95.3701 23° Northeast 219 252 3,100 1,355 Climbing FlightAware ADS-B
Tue 08:59:02 AM 29.9968 -95.3629 22° Northeast 244 281 3,400 2,741 Climbing FlightAware ADS-B
Tue 09:00:08 AM 30.0711 -95.3289 21° North 277 319 6,800 3,125 Climbing FlightAware ADS-B
Tue 09:00:38 AM 30.1079 -95.3130 21° North 290 334 8,400 3,067 Climbing FlightAware ADS-B
Tue 09:00:53 AM 30.1273 -95.3046 21° North 296 341 9,100 2,903 Climbing FlightAware ADS-B
Tue 09:01:09 AM 30.1488 -95.2951 21° North 302 348 9,900 2,298 Climbing FlightAware ADS-B
Tue 09:01:40 AM 30.1902 -95.2766 21° North 329 379 10,900 2,146 Climbing FlightAware ADS-B
Tue 09:03:12 AM 30.3326 -95.2130 21° North 370 426 14,300 2,311 Climbing FlightAware ADS-B
Tue 09:03:42 AM 30.3812 -95.1913 21° North 370 426 15,600 2,400 Climbing FlightAware ADS-B
Tue 09:04:12 AM 30.4305 -95.1692 21° North 379 436 16,700 2,000 Climbing FlightAware ADS-B
Tue 09:05:57 AM 30.5978 -95.0691 28° Northeast 400 460 20,100 1,911 Climbing FlightAware ADS-B
Tue 09:06:27 AM 30.6491 -95.0373 28° Northeast 405 466 21,000 1,672 Climbing FlightAware ADS-B
Tue 09:06:58 AM 30.6997 -95.0059 28° Northeast 413 475 21,800 1,475 Climbing FlightAware ADS-B
Tue 09:07:28 AM 30.7516 -94.9736 28° Northeast 420 483 22,500 1,421 Climbing FlightAware ADS-B
Tue 09:09:30 AM 30.9646 -94.8406 28° Northeast 438 504 25,400 1,421 Climbing FlightAware ADS-B
Tue 09:10:00 AM 31.0194 -94.8063 28° Northeast 444 511 26,100 1,300 Climbing FlightAware ADS-B
Tue 09:10:30 AM 31.0731 -94.7726 28° Northeast 450 518 26,700 1,130 Climbing FlightAware ADS-B
Tue 09:12:34 AM 31.3038 -94.6194 31° Northeast 473 544 29,000 1,110 Climbing FlightAware ADS-B
Tue 09:15:22 AM 31.6294 -94.3934 31° Northeast 489 563 32,100 1,247 Climbing FlightAware ADS-B
Tue 09:16:25 AM 31.7499 -94.3091 31° Northeast 480 552 33,800 1,484 Climbing FlightAware ADS-B
Tue 09:16:55 AM 31.8070 -94.2693 31° Northeast 479 551 34,400 1,188 Climbing FlightAware ADS-B
Tue 09:18:01 AM 31.9308 -94.1828 31° Northeast 475 547 35,700 1,188 Climbing FlightAware ADS-B
Tue 09:18:31 AM 31.9878 -94.1424 31° Northeast 472 543 36,300 396 Climbing FlightAware ADS-B
Tue 09:21:18 AM 32.3047 -93.9185 31° Northeast 476 548 37,000 200 Climbing FlightAware ADS-B
Tue 09:22:01 AM 32.3760 -93.8680 31° Northeast 473 544 37,000  Level FlightAware ADS-B
Tue 09:22:14 AM 32.4091 -93.8443 31° Northeast 474 545 37,000  Level FlightAware ADS-B
Tue 09:23:20 AM 32.5340 -93.7553 31° Northeast 477 549 37,000  Level FlightAware ADS-B
Tue 09:24:19 AM 32.6390 -93.6800 31° Northeast 484 557 37,000  Level FlightAware ADS-B
Tue 09:24:58 AM 32.7190 -93.6240 30° Northeast 486 559 37,000  Level FlightAware ADS-B
Tue 09:25:34 AM 32.7900 -93.5730 31° Northeast 486 559 37,000  Level FlightAware ADS-B
Tue 09:26:09 AM 32.8560 -93.5250 31° Northeast 486 559 37,000  Level FlightAware ADS-B
Tue 09:26:44 AM 32.9230 -93.4770 31° Northeast 486 559 37,000  Level FlightAware ADS-B
Tue 09:27:20 AM 32.9960 -93.4240 31° Northeast 486 559 37,000  Level FlightAware ADS-B
Tue 09:27:51 AM 33.0530 -93.3830 31° Northeast 486 559 37,000  Level FlightAware ADS-B
Tue 09:28:25 AM 33.1200 -93.3340 31° Northeast 487 560 37,000  Level FlightAware ADS-B
Tue 09:29:03 AM 33.1890 -93.2850 31° Northeast 488 562 37,000  Level FlightAware ADS-B
Tue 09:29:37 AM 33.2580 -93.2330 32° Northeast 488 562 37,000  Level FlightAware ADS-B
Tue 09:30:18 AM 33.3388 -93.1749 31° Northeast 488 562 37,000  Level FlightAware ADS-B
Tue 09:30:49 AM 33.3940 -93.1350 31° Northeast 487 560 37,000  Level FlightAware ADS-B
Tue 09:31:29 AM 33.4670 -93.0810 32° Northeast 486 559 37,000  Level FlightAware ADS-B
Tue 09:32:05 AM 33.5260 -93.0390 31° Northeast 485 558 37,000  Level FlightAware ADS-B
Tue 09:32:29 AM 33.5650 -93.0110 31° Northeast 485 558 37,000  Level FlightAware ADS-B
Tue 09:33:17 AM 33.6440 -92.9540 31° Northeast 485 558 37,000  Level FlightAware ADS-B
Tue 09:33:54 AM 33.7480 -92.8760 32° Northeast 482 555 37,000  Level FlightAware ADS-B
Tue 09:34:27 AM 33.7990 -92.8370 32° Northeast 482 555 37,000  Level FlightAware ADS-B
Tue 09:35:04 AM 33.8580 -92.7930 32° Northeast 482 555 37,000  Level FlightAware ADS-B
Tue 09:35:40 AM 33.9160 -92.7490 32° Northeast 482 555 37,000  Level FlightAware ADS-B
Tue 09:36:16 AM 33.9740 -92.7060 32° Northeast 482 555 37,000  Level FlightAware ADS-B
Tue 09:36:52 AM 34.0320 -92.6620 32° Northeast 482 555 37,000  Level FlightAware ADS-B
Tue 09:37:31 AM 34.0940 -92.6150 32° Northeast 482 555 37,000  Level FlightAware ADS-B
Tue 09:38:08 AM 34.1540 -92.5700 32° Northeast 482 555 37,000  Level FlightAware ADS-B
Tue 09:38:45 AM 34.2130 -92.5250 32° Northeast 482 555 37,000  Level FlightAware ADS-B
Tue 09:39:21 AM 34.2710 -92.4810 32° Northeast 482 555 37,000  Level FlightAware ADS-B
Tue 09:39:57 AM 34.3290 -92.4370 32° Northeast 482 555 37,000  Level FlightAware ADS-B
Tue 09:40:31 AM 34.3840 -92.3960 32° Northeast 482 555 37,000  Level FlightAware ADS-B
Tue 09:41:08 AM 34.4430 -92.3510 32° Northeast 482 555 37,000  Level FlightAware ADS-B
Tue 09:41:42 AM 34.4980 -92.3090 32° Northeast 482 555 37,000  Level FlightAware ADS-B
Tue 09:42:21 AM 34.5610 -92.2620 32° Northeast 482 555 37,000  Level FlightAware ADS-B
Tue 09:42:58 AM 34.6200 -92.2170 32° Northeast 482 555 37,000  Level FlightAware ADS-B
Tue 09:43:34 AM 34.6780 -92.1730 32° Northeast 482 555 37,000  Level FlightAware ADS-B
Tue 09:46:51 AM 35.2980 -92.0020 13° North 473 544 37,000  Level FlightAware ADS-B
Tue 09:47:23 AM 35.3650 -91.9830 13° North 470 541 37,000  Level FlightAware ADS-B
Tue 09:48:19 AM 35.4750 -91.9510 13° North 469 540 37,000  Level FlightAware ADS-B
Tue 09:48:55 AM 35.5590 -91.9260 14° North 461 531 37,000  Level FlightAware ADS-B
Tue 09:49:32 AM 35.6240 -91.9080 13° North 460 529 37,000  Level FlightAware ADS-B
Tue 09:50:08 AM 35.6880 -91.8890 14° North 460 529 37,000  Level FlightAware ADS-B
Tue 09:50:43 AM 35.7810 -91.8610 14° North 455 524 37,000  Level FlightAware ADS-B
Tue 09:51:24 AM 35.8550 -91.8400 13° North 454 522 37,000  Level FlightAware ADS-B
Tue 09:52:00 AM 35.9380 -91.8150 14° North 454 522 37,000 -90 Level FlightAware ADS-B
Tue 09:52:31 AM 36.0020 -91.7960 14° North 455 524 36,900  Descending FlightAware ADS-B
Tue 09:53:07 AM 36.0760 -91.7740 14° North 456 525 37,000 85 Climbing FlightAware ADS-B
Tue 09:53:42 AM 36.1450 -91.7540 13° North 453 521 37,000  Level FlightAware ADS-B
Tue 09:54:19 AM 36.2220 -91.7300 14° North 449 517 37,000  Level FlightAware ADS-B
Tue 09:54:53 AM 36.2910 -91.7110 13° North 447 514 37,000  Level FlightAware ADS-B
Tue 09:55:29 AM 36.3640 -91.6890 14° North 446 513 37,000  Level FlightAware ADS-B
Tue 09:55:59 AM 36.4220 -91.6720 13° North 445 512 37,000  Level FlightAware ADS-B
Tue 09:56:37 AM 36.5000 -91.6480 14° North 445 512 37,000  Level FlightAware ADS-B
Tue 09:57:09 AM 36.5640 -91.6290 13° North 445 512 37,000  Level FlightAware ADS-B
Tue 09:57:49 AM 36.6400 -91.6060 14° North 452 520 37,000  Level FlightAware ADS-B
Tue 09:58:21 AM 36.7100 -91.5850 14° North 464 534 37,000  Level FlightAware ADS-B
Tue 09:58:57 AM 36.7860 -91.5620 14° North 460 529 37,000  Level FlightAware ADS-B
Tue 09:59:31 AM 36.8550 -91.5410 14° North 458 527 37,000  Level FlightAware ADS-B
Tue 10:00:05 AM 36.9250 -91.5200 13° North 458 527 37,000  Level FlightAware ADS-B
Tue 10:00:45 AM 37.0080 -91.4950 14° North 456 525 37,000  Level FlightAware ADS-B
Tue 10:01:25 AM 37.0910 -91.4700 14° North 455 524 37,000  Level FlightAware ADS-B
Tue 10:01:59 AM 37.1610 -91.4480 14° North 455 524 37,000  Level FlightAware ADS-B
Tue 10:02:34 AM 37.2310 -91.4270 13° North 455 524 37,000  Level FlightAware ADS-B
Tue 10:03:11 AM 37.3080 -91.4040 13° North 455 524 37,000  Level FlightAware ADS-B
Tue 10:03:41 AM 37.3700 -91.3850 14° North 455 524 37,000  Level FlightAware ADS-B
Tue 10:04:21 AM 37.4490 -91.3600 14° North 455 524 37,000  Level FlightAware ADS-B
Tue 10:04:51 AM 37.5090 -91.3420 13° North 453 521 37,000  Level FlightAware ADS-B
Tue 10:05:26 AM 37.5760 -91.3220 13° North 449 517 37,000  Level FlightAware ADS-B
Tue 10:06:03 AM 37.6400 -91.3030 13° North 449 517 37,000  Level FlightAware ADS-B
Tue 10:06:39 AM 37.7020 -91.2850 13° North 449 517 37,000  Level FlightAware ADS-B
Tue 10:07:13 AM 37.7970 -91.2530 15° North 452 520 37,000  Level FlightAware ADS-B
Tue 10:07:49 AM 37.8710 -91.2300 14° North 452 520 37,000  Level FlightAware ADS-B
Tue 10:08:41 AM 37.9780 -91.1970 14° North 454 522 37,000  Level FlightAware ADS-B
Tue 10:09:23 AM 38.0510 -91.1750 13° North 455 524 37,000  Level FlightAware ADS-B
Tue 10:10:12 AM 38.1570 -91.1410 14° North 455 524 37,000  Level FlightAware ADS-B
Tue 10:10:48 AM 38.2190 -91.1210 14° North 455 524 37,000  Level FlightAware ADS-B
Tue 10:11:24 AM 38.2820 -91.1010 14° North 455 524 37,000  Level FlightAware ADS-B
Tue 10:12:01 AM 38.3460 -91.0800 14° North 455 524 37,000  Level FlightAware ADS-B
Tue 10:12:37 AM 38.4090 -91.0610 13° North 455 524 37,000  Level FlightAware ADS-B
Tue 10:13:13 AM 38.4710 -91.0410 14° North 455 524 37,000  Level FlightAware ADS-B
Tue 10:13:49 AM 38.5340 -91.0210 14° North 455 524 37,000  Level FlightAware ADS-B
Tue 10:14:20 AM 38.6690 -90.9790 14° North 448 516 37,000  Level FlightAware ADS-B
Tue 10:14:56 AM 38.7250 -90.9620 13° North 448 516 37,000  Level FlightAware ADS-B
Tue 10:15:33 AM 38.7890 -90.9430 13° North 448 516 37,000  Level FlightAware ADS-B
Tue 10:16:08 AM 38.8730 -90.8740 33° Northeast 444 511 37,000  Level FlightAware ADS-B
Tue 10:16:46 AM 38.9340 -90.8430 22° Northeast 444 511 37,000  Level FlightAware ADS-B
Tue 10:17:23 AM 38.9940 -90.8110 23° Northeast 444 511 37,000  Level FlightAware ADS-B
Tue 10:18:00 AM 39.0540 -90.7800 22° Northeast 444 511 37,000 -282 Level FlightAware ADS-B
Tue 10:18:48 AM 39.1710 -90.7130 24° Northeast 446 513 36,600 -286 Descending FlightAware ADS-B
Tue 10:19:24 AM 39.2290 -90.6830 22° Northeast 446 513 36,600 -1,125 Level FlightAware ADS-B
Tue 10:19:52 AM 39.2980 -90.6430 24° Northeast 440 506 35,400 -1,182 Descending FlightAware ADS-B
Tue 10:20:30 AM 39.3580 -90.6100 23° Northeast 440 506 35,300 -81 Descending FlightAware ADS-B
Tue 10:21:06 AM 39.4160 -90.5780 23° Northeast 440 506 35,300 -1,135 Level FlightAware ADS-B
Tue 10:21:44 AM 39.5080 -90.5270 23° Northeast 440 506 33,900 -1,652 Descending FlightAware ADS-B
Tue 10:22:15 AM 39.5670 -90.4940 23° Northeast 441 507 33,400 -659 Descending FlightAware ADS-B
Tue 10:23:06 AM 39.6590 -90.4430 23° Northeast 436 502 33,000 -273 Descending FlightAware ADS-B
Tue 10:23:43 AM 39.7270 -90.4050 23° Northeast 437 503 33,000  Level FlightAware ADS-B
Tue 10:24:16 AM 39.7920 -90.3690 23° Northeast 439 505 33,000  Level FlightAware ADS-B
Tue 10:24:51 AM 39.8530 -90.3350 23° Northeast 438 504 33,000  Level FlightAware ADS-B
Tue 10:25:24 AM 39.9180 -90.2990 23° Northeast 438 504 33,000  Level FlightAware ADS-B
Tue 10:26:00 AM 39.9830 -90.2620 24° Northeast 445 512 33,000  Level FlightAware ADS-B
Tue 10:26:34 AM 40.0480 -90.2250 24° Northeast 451 519 33,000  Level FlightAware ADS-B
Tue 10:27:12 AM 40.1210 -90.1840 23° Northeast 451 519 33,000  Level FlightAware ADS-B
Tue 10:27:48 AM 40.1880 -90.1460 23° Northeast 451 519 33,000  Level FlightAware ADS-B
Tue 10:28:23 AM 40.2580 -90.1070 23° Northeast 450 518 33,000  Level FlightAware ADS-B
Tue 10:28:53 AM 40.3160 -90.0730 24° Northeast 450 518 33,000  Level FlightAware ADS-B
Tue 10:29:33 AM 40.3930 -90.0300 23° Northeast 449 517 33,000  Level FlightAware ADS-B
Tue 10:30:05 AM 40.4510 -89.9970 23° Northeast 448 516 33,000  Level FlightAware ADS-B
Tue 10:30:37 AM 40.5140 -89.9610 23° Northeast 448 516 33,000  Level FlightAware ADS-B
Tue 10:31:15 AM 40.5860 -89.9200 23° Northeast 449 517 33,000  Level FlightAware ADS-B
Tue 10:31:53 AM 40.6600 -89.8770 24° Northeast 451 519 33,000 -188 Level FlightAware ADS-B
Tue 10:32:19 AM 40.7070 -89.8460 27° Northeast 452 520 32,800 -714 Descending FlightAware ADS-B
Tue 10:32:35 AM 40.7330 -89.8150 42° Northeast 452 520 32,500 -889 Descending FlightAware ADS-B
Tue 10:33:13 AM 40.7840 -89.7420 47° Northeast 457 526 32,000 -943 Descending FlightAware ADS-B
Tue 10:33:45 AM 40.8300 -89.6780 46° Northeast 456 525 31,400 -1,031 Descending FlightAware ADS-B
Tue 10:34:17 AM 40.8780 -89.6110 47° Northeast 456 525 30,900 -957 Descending FlightAware ADS-B
Tue 10:34:54 AM 40.9310 -89.5370 47° Northeast 454 522 30,300 -1,479 Descending FlightAware ADS-B
Tue 10:35:30 AM 40.9830 -89.4630 47° Northeast 458 527 29,100 -2,647 Descending FlightAware ADS-B
Tue 10:36:02 AM 41.0300 -89.3970 47° Northeast 458 527 27,300 -3,088 Descending FlightAware ADS-B
Tue 10:36:38 AM 41.0830 -89.3220 47° Northeast 451 519 25,600 -2,743 Descending FlightAware ADS-B
Tue 10:37:12 AM 41.1290 -89.2570 47° Northeast 445 512 24,100 -2,667 Descending FlightAware ADS-B
Tue 10:37:50 AM 41.1810 -89.1840 47° Northeast 437 503 22,400 -2,676 Descending FlightAware ADS-B
Tue 10:38:26 AM 41.2300 -89.1140 47° Northeast 429 494 20,800 -2,842 Descending FlightAware ADS-B
Tue 10:39:06 AM 41.2860 -89.0330 47° Northeast 420 483 18,800 -3,000 Descending FlightAware ADS-B
Tue 10:39:42 AM 41.3350 -88.9650 46° Northeast 418 481 17,000 -2,818 Descending FlightAware ADS-B
Tue 10:40:12 AM 41.3730 -88.9090 48° Northeast 412 474 15,700 -2,696 Descending FlightAware ADS-B
Tue 10:40:51 AM 41.4220 -88.8380 47° Northeast 402 463 13,900 -2,684 Descending FlightAware ADS-B
Tue 10:41:28 AM 41.4680 -88.7720 47° Northeast 393 452 12,300 -2,083 Descending FlightAware ADS-B
Tue 10:42:03 AM 41.5090 -88.7120 48° Northeast 365 420 11,400 -1,660 Descending FlightAware ADS-B
Tue 10:42:15 AM 41.5210 -88.6870 57° Northeast 356 410 11,000 -750 Descending FlightAware ADS-B
Tue 10:42:51 AM 41.5480 -88.6180 62° Northeast 358 412 10,800 -167 Descending FlightAware ADS-B
Tue 10:43:27 AM 41.5760 -88.5470 62° Northeast 357 411 10,800  Level FlightAware ADS-B
Tue 10:44:01 AM 41.6030 -88.4800 62° Northeast 357 411 10,800 -257 Level FlightAware ADS-B
Tue 10:44:37 AM 41.6390 -88.4170 53° Northeast 357 411 10,500 -609 Descending FlightAware ADS-B
Tue 10:45:10 AM 41.6710 -88.3620 52° Northeast 354 407 10,100 -750 Descending FlightAware ADS-B
Tue 10:45:33 AM 41.6940 -88.3200 54° Northeast 347 399 9,800 -419 Descending FlightAware ADS-B
Tue 10:45:53 AM 41.7120 -88.2900 51° Northeast 323 372 9,800  Level FlightAware ADS-B
Tue 10:46:14 AM 41.7320 -88.2570 51° Northeast 299 344 9,800 -600 Level FlightAware ADS-B
Tue 10:46:33 AM 41.7480 -88.2290 53° Northeast 291 335 9,400 -837 Descending FlightAware ADS-B
Tue 10:46:57 AM 41.7670 -88.1960 52° Northeast 277 319 9,200 -585 Descending FlightAware ADS-B
Tue 10:47:14 AM 41.7800 -88.1740 52° Northeast 266 306 9,000 -563 Descending FlightAware ADS-B
Tue 10:47:29 AM 41.7910 -88.1540 54° Northeast 259 298 8,900 -769 Descending FlightAware ADS-B
Tue 10:47:53 AM 41.8090 -88.1240 51° Northeast 250 288 8,500 -1,227 Descending FlightAware ADS-B
Tue 10:48:13 AM 41.8230 -88.1000 52° Northeast 254 292 8,000 -1,350 Descending FlightAware ADS-B
Tue 10:48:33 AM 41.8370 -88.0740 54° Northeast 254 292 7,600 -1,105 Descending FlightAware ADS-B
Tue 10:48:51 AM 41.8490 -88.0520 54° Northeast 248 285 7,300 -750 Descending FlightAware ADS-B
Tue 10:49:13 AM 41.8640 -88.0250 53° Northeast 238 274 7,100 -450 Descending FlightAware ADS-B
Tue 10:49:31 AM 41.8760 -88.0040 52° Northeast 228 262 7,000 -500 Descending FlightAware ADS-B
Tue 10:49:49 AM 41.8840 -87.9850 61° Northeast 215 247 6,800 -480 Descending FlightAware ADS-B
Tue 10:49:56 AM 41.8850 -87.9770 80° East 208 239 6,800  Level FlightAware ADS-B
Tue 10:50:17 AM 41.8840 -87.9500 93° East 205 236 6,800  Level FlightAware ADS-B
Tue 10:50:41 AM 41.8840 -87.9180 90° East 206 237 6,800  Level FlightAware ADS-B
Tue 10:51:01 AM 41.8840 -87.8920 90° East 206 237 6,800  Level FlightAware ADS-B
Tue 10:51:22 AM 41.8840 -87.8650 90° East 206 237 6,800  Level FlightAware ADS-B
Tue 10:51:34 AM 41.8840 -87.8490 90° East 206 237 6,800  Level FlightAware ADS-B
Tue 10:52:06 AM 41.8840 -87.8090 90° East 205 236 6,800 -111 Level FlightAware ADS-B
Tue 10:52:28 AM 41.8840 -87.7810 90° East 203 234 6,700 -682 Descending FlightAware ADS-B
Tue 10:52:50 AM 41.8840 -87.7540 90° East 202 232 6,300 -977 Descending FlightAware ADS-B
Tue 10:53:11 AM 41.8840 -87.7270 90° East 202 232 6,000 -900 Descending FlightAware ADS-B
Tue 10:53:30 AM 41.8840 -87.7070 90° East 202 232 5,700 -1,059 Descending FlightAware ADS-B
Tue 10:53:45 AM 41.8840 -87.6860 90° East 200 230 5,400 -727 Descending FlightAware ADS-B
Tue 10:54:03 AM 41.8839 -87.6675 90° East 202 232 5,300 -1,111 Descending Chicago Center
Tue 10:54:12 AM 41.8840 -87.6510 90° East 197 227 4,900 -669 Descending FlightAware ADS-B
Tue 10:58:41 AM 41.9690 -87.7540 318° Northwest 176 203 2,200 -619 Descending FlightAware ADS-B
Tue 10:59:22 AM 41.9690 -87.7910 270° West 148 170 1,700 -600 Descending FlightAware ADS-B
Tue 10:59:41 AM 41.9690 -87.8000 270° West 134 154 1,600 -621 Descending FlightAware ADS-B
Tue 10:59:51 AM 41.9690 -87.8140 270° West 131 151 1,400 -811 Descending FlightAware ADS-B
Tue 11:00:18 AM 41.9690 -87.8390 270° West 131 151 1,100 -652 Descending FlightAware ADS-B
Tue 11:00:37 AM 41.9690 -87.8540 270° West 129 148 900 -600 Descending FlightAware ADS-B
Tue 11:00:58 AM 41.9690 -87.8710 270° West 126 145 700 -615 Descending FlightAware ADS-B
Tue 11:01:16 AM 41.9690 -87.8850 270° West 128 147 500 -261 Descending FlightAware ADS-B
Tue 11:01:44 AM 41.9690 -87.9040 270° West 128 147 500  Level FlightAware ADS-B

Login

Don't have an account? Register now (free) for customized features, flight alerts, and more!